sensor_id;sensor_type;location;lat;lon;timestamp;P1;P2;P0
72509;PMS5003;60532;56.114;40.350;2022-10-29T00:00:35;17.00;16.50;5.75
72509;PMS5003;60532;56.114;40.350;2022-10-29T00:02:35;17.33;14.00;5.33
72509;PMS5003;60532;56.114;40.350;2022-10-29T00:04:36;18.00;11.33;5.67
72509;PMS5003;60532;56.114;40.350;2022-10-29T00:06:36;10.33;6.33;3.00
72509;PMS5003;60532;56.114;40.350;2022-10-29T00:08:38;16.00;12.25;5.75
72509;PMS5003;60532;56.114;40.350;2022-10-29T00:10:39;16.75;15.25;5.50
72509;PMS5003;60532;56.114;40.350;2022-10-29T00:12:39;16.00;12.33;6.00
72509;PMS5003;60532;56.114;40.350;2022-10-29T00:14:40;15.33;13.67;5.33
72509;PMS5003;60532;56.114;40.350;2022-10-29T00:16:40;17.00;14.00;6.00
72509;PMS5003;60532;56.114;40.350;2022-10-29T00:18:41;18.67;14.00;6.00
72509;PMS5003;60532;56.114;40.350;2022-10-29T00:20:42;20.50;16.25;6.50
72509;PMS5003;60532;56.114;40.350;2022-10-29T00:22:42;17.67;17.33;6.00
72509;PMS5003;60532;56.114;40.350;2022-10-29T00:24:43;19.00;16.00;6.67
72509;PMS5003;60532;56.114;40.350;2022-10-29T00:26:43;17.33;15.67;7.00
72509;PMS5003;60532;56.114;40.350;2022-10-29T00:28:44;20.67;16.00;8.33
72509;PMS5003;60532;56.114;40.350;2022-10-29T00:30:45;19.50;16.00;6.25
72509;PMS5003;60532;56.114;40.350;2022-10-29T00:32:45;12.33;11.00;6.00
72509;PMS5003;60532;56.114;40.350;2022-10-29T00:34:46;21.00;15.00;6.00
72509;PMS5003;60532;56.114;40.350;2022-10-29T00:36:46;14.00;14.00;6.00
72509;PMS5003;60532;56.114;40.350;2022-10-29T00:38:47;16.67;14.33;8.33
72509;PMS5003;60532;56.114;40.350;2022-10-29T00:40:48;20.25;13.50;6.00
72509;PMS5003;60532;56.114;40.350;2022-10-29T00:42:49;16.33;10.67;3.00
72509;PMS5003;60532;56.114;40.350;2022-10-29T00:44:49;15.00;14.33;7.33
72509;PMS5003;60532;56.114;40.350;2022-10-29T00:46:51;19.75;15.50;6.75
72509;PMS5003;60532;56.114;40.350;2022-10-29T00:48:53;23.50;14.25;6.00
72509;PMS5003;60532;56.114;40.350;2022-10-29T00:50:54;19.75;18.75;7.00
72509;PMS5003;60532;56.114;40.350;2022-10-29T00:52:55;13.25;12.50;6.00
72509;PMS5003;60532;56.114;40.350;2022-10-29T00:54:56;18.67;15.00;7.00
72509;PMS5003;60532;56.114;40.350;2022-10-29T00:57:02;15.00;14.50;7.25
72509;PMS5003;60532;56.114;40.350;2022-10-29T00:59:04;15.25;14.00;6.00
72509;PMS5003;60532;56.114;40.350;2022-10-29T01:01:05;10.50;10.50;6.00
72509;PMS5003;60532;56.114;40.350;2022-10-29T01:03:06;20.00;16.50;7.00
72509;PMS5003;60532;56.114;40.350;2022-10-29T01:05:07;17.00;16.00;7.00
72509;PMS5003;60532;56.114;40.350;2022-10-29T01:07:08;19.25;17.50;6.00
72509;PMS5003;60532;56.114;40.350;2022-10-29T01:09:09;19.33;17.33;6.67
72509;PMS5003;60532;56.114;40.350;2022-10-29T01:13:22;23.50;16.25;6.25
72509;PMS5003;60532;56.114;40.350;2022-10-29T01:15:32;15.00;14.50;5.00
72509;PMS5003;60532;56.114;40.350;2022-10-29T01:17:40;16.00;16.00;8.00
72509;PMS5003;60532;56.114;40.350;2022-10-29T01:21:55;11.33;11.33;6.00
72509;PMS5003;60532;56.114;40.350;2022-10-29T01:24:04;18.50;16.00;8.00
72509;PMS5003;60532;56.114;40.350;2022-10-29T01:28:33;13.00;10.00;4.00
72509;PMS5003;60532;56.114;40.350;2022-10-29T01:34:56;15.50;14.00;6.00
72509;PMS5003;60532;56.114;40.350;2022-10-29T01:41:20;20.25;14.50;6.75
72509;PMS5003;60532;56.114;40.350;2022-10-29T01:45:44;19.50;14.00;6.75
72509;PMS5003;60532;56.114;40.350;2022-10-29T01:47:53;16.25;16.25;6.50
72509;PMS5003;60532;56.114;40.350;2022-10-29T01:49:57;19.75;14.50;6.50
72509;PMS5003;60532;56.114;40.350;2022-10-29T01:51:59;16.50;15.75;6.75
72509;PMS5003;60532;56.114;40.350;2022-10-29T01:54:01;20.25;15.00;6.00
72509;PMS5003;60532;56.114;40.350;2022-10-29T01:56:05;17.50;15.75;6.00
72509;PMS5003;60532;56.114;40.350;2022-10-29T01:58:06;23.67;17.33;6.00
72509;PMS5003;60532;56.114;40.350;2022-10-29T02:00:08;19.00;15.00;5.00
72509;PMS5003;60532;56.114;40.350;2022-10-29T02:04:31;17.00;17.00;6.00
72509;PMS5003;60532;56.114;40.350;2022-10-29T02:06:46;20.75;17.25;7.00
72509;PMS5003;60532;56.114;40.350;2022-10-29T02:09:11;19.50;14.50;5.75
72509;PMS5003;60532;56.114;40.350;2022-10-29T02:11:24;17.50;14.25;6.00
72509;PMS5003;60532;56.114;40.350;2022-10-29T02:13:36;24.50;18.00;6.25
72509;PMS5003;60532;56.114;40.350;2022-10-29T02:15:47;16.25;14.75;7.00
72509;PMS5003;60532;56.114;40.350;2022-10-29T02:17:49;19.50;14.50;5.75
72509;PMS5003;60532;56.114;40.350;2022-10-29T02:19:49;21.33;15.00;7.00
72509;PMS5003;60532;56.114;40.350;2022-10-29T02:21:50;19.33;13.33;6.00
72509;PMS5003;60532;56.114;40.350;2022-10-29T02:23:52;20.00;19.33;6.00
72509;PMS5003;60532;56.114;40.350;2022-10-29T02:25:52;18.25;17.75;6.25
72509;PMS5003;60532;56.114;40.350;2022-10-29T02:27:53;20.00;16.00;6.00
72509;PMS5003;60532;56.114;40.350;2022-10-29T02:29:55;27.00;17.33;7.33
72509;PMS5003;60532;56.114;40.350;2022-10-29T02:31:56;19.60;15.60;6.00
72509;PMS5003;60532;56.114;40.350;2022-10-29T02:33:56;18.00;15.00;2.33
72509;PMS5003;60532;56.114;40.350;2022-10-29T02:35:56;14.00;14.00;6.25
72509;PMS5003;60532;56.114;40.350;2022-10-29T02:37:57;20.33;17.67;7.00
72509;PMS5003;60532;56.114;40.350;2022-10-29T02:39:57;18.67;16.00;7.33
72509;PMS5003;60532;56.114;40.350;2022-10-29T02:41:58;15.00;13.00;5.00
72509;PMS5003;60532;56.114;40.350;2022-10-29T02:43:58;19.33;19.00;7.67
72509;PMS5003;60532;56.114;40.350;2022-10-29T02:46:09;17.33;16.00;7.00
72509;PMS5003;60532;56.114;40.350;2022-10-29T02:48:09;19.25;18.50;7.00
72509;PMS5003;60532;56.114;40.350;2022-10-29T02:50:10;19.67;19.00;7.00
72509;PMS5003;60532;56.114;40.350;2022-10-29T02:52:10;15.33;13.33;5.00
72509;PMS5003;60532;56.114;40.350;2022-10-29T02:54:18;19.33;16.67;9.00
72509;PMS5003;60532;56.114;40.350;2022-10-29T02:56:18;17.50;15.50;7.25
72509;PMS5003;60532;56.114;40.350;2022-10-29T02:58:19;18.33;16.00;5.00
72509;PMS5003;60532;56.114;40.350;2022-10-29T03:00:19;22.33;16.67;7.00
72509;PMS5003;60532;56.114;40.350;2022-10-29T03:02:20;15.00;12.00;5.33
72509;PMS5003;60532;56.114;40.350;2022-10-29T03:04:20;20.33;12.00;3.00
72509;PMS5003;60532;56.114;40.350;2022-10-29T03:06:21;14.00;14.00;6.00
72509;PMS5003;60532;56.114;40.350;2022-10-29T03:08:21;16.00;14.25;5.00
72509;PMS5003;60532;56.114;40.350;2022-10-29T03:10:22;24.33;15.00;6.00
72509;PMS5003;60532;56.114;40.350;2022-10-29T03:12:22;11.33;8.67;2.00
72509;PMS5003;60532;56.114;40.350;2022-10-29T03:14:23;12.00;9.75;1.00
72509;PMS5003;60532;56.114;40.350;2022-10-29T03:16:23;15.67;14.33;6.00
72509;PMS5003;60532;56.114;40.350;2022-10-29T03:18:24;19.00;19.00;8.33
72509;PMS5003;60532;56.114;40.350;2022-10-29T03:20:24;12.00;10.67;3.67
72509;PMS5003;60532;56.114;40.350;2022-10-29T03:22:25;11.50;11.50;5.75
72509;PMS5003;60532;56.114;40.350;2022-10-29T03:24:25;16.67;14.33;5.67
72509;PMS5003;60532;56.114;40.350;2022-10-29T03:26:28;15.00;14.25;6.00
72509;PMS5003;60532;56.114;40.350;2022-10-29T03:28:29;16.00;14.75;5.50
72509;PMS5003;60532;56.114;40.350;2022-10-29T03:30:29;14.00;14.00;6.25
72509;PMS5003;60532;56.114;40.350;2022-10-29T03:32:30;18.50;16.25;6.00
72509;PMS5003;60532;56.114;40.350;2022-10-29T03:34:30;16.33;15.33;7.00
72509;PMS5003;60532;56.114;40.350;2022-10-29T03:36:31;16.75;16.00;6.00
72509;PMS5003;60532;56.114;40.350;2022-10-29T03:38:31;15.25;15.00;6.25
72509;PMS5003;60532;56.114;40.350;2022-10-29T03:40:32;15.67;14.00;7.00
72509;PMS5003;60532;56.114;40.350;2022-10-29T03:42:33;15.25;15.25;5.75
72509;PMS5003;60532;56.114;40.350;2022-10-29T03:44:33;21.67;17.33;6.00
72509;PMS5003;60532;56.114;40.350;2022-10-29T03:46:34;16.25;15.25;7.00
72509;PMS5003;60532;56.114;40.350;2022-10-29T03:48:34;16.25;15.00;6.25
72509;PMS5003;60532;56.114;40.350;2022-10-29T03:50:35;17.75;15.75;7.00
72509;PMS5003;60532;56.114;40.350;2022-10-29T03:52:35;19.00;16.25;6.50
72509;PMS5003;60532;56.114;40.350;2022-10-29T03:54:36;20.50;16.25;6.00
72509;PMS5003;60532;56.114;40.350;2022-10-29T03:56:36;19.50;13.50;6.25
72509;PMS5003;60532;56.114;40.350;2022-10-29T03:58:37;15.75;15.50;6.00
72509;PMS5003;60532;56.114;40.350;2022-10-29T04:00:37;20.00;14.00;6.00
72509;PMS5003;60532;56.114;40.350;2022-10-29T04:02:38;15.50;15.00;6.00
72509;PMS5003;60532;56.114;40.350;2022-10-29T04:04:38;20.25;14.00;5.50
72509;PMS5003;60532;56.114;40.350;2022-10-29T04:06:39;22.00;18.50;6.75
72509;PMS5003;60532;56.114;40.350;2022-10-29T04:08:39;19.75;16.00;6.50
72509;PMS5003;60532;56.114;40.350;2022-10-29T04:10:45;21.25;15.00;5.00
72509;PMS5003;60532;56.114;40.350;2022-10-29T04:12:46;15.20;14.20;5.60
72509;PMS5003;60532;56.114;40.350;2022-10-29T04:14:46;20.75;15.75;6.00
72509;PMS5003;60532;56.114;40.350;2022-10-29T04:16:47;17.00;11.00;5.00
72509;PMS5003;60532;56.114;40.350;2022-10-29T04:18:48;19.75;17.50;7.00
72509;PMS5003;60532;56.114;40.350;2022-10-29T04:20:48;16.75;16.00;6.25
72509;PMS5003;60532;56.114;40.350;2022-10-29T04:22:49;10.75;10.75;1.75
72509;PMS5003;60532;56.114;40.350;2022-10-29T04:24:50;19.20;16.40;7.80
72509;PMS5003;60532;56.114;40.350;2022-10-29T04:26:51;12.20;12.00;6.80
72509;PMS5003;60532;56.114;40.350;2022-10-29T04:28:52;14.50;13.00;7.00
72509;PMS5003;60532;56.114;40.350;2022-10-29T04:30:52;14.50;14.00;6.50
72509;PMS5003;60532;56.114;40.350;2022-10-29T04:32:56;16.25;14.75;5.75
72509;PMS5003;60532;56.114;40.350;2022-10-29T04:34:57;17.80;16.40;7.80
72509;PMS5003;60532;56.114;40.350;2022-10-29T04:36:58;15.75;15.50;6.00
72509;PMS5003;60532;56.114;40.350;2022-10-29T04:38:58;16.00;13.50;5.00
72509;PMS5003;60532;56.114;40.350;2022-10-29T04:40:59;20.50;17.50;6.75
72509;PMS5003;60532;56.114;40.350;2022-10-29T04:43:00;18.40;13.80;6.00
72509;PMS5003;60532;56.114;40.350;2022-10-29T04:45:01;19.50;19.25;7.25
72509;PMS5003;60532;56.114;40.350;2022-10-29T04:47:01;16.25;15.50;7.00
72509;PMS5003;60532;56.114;40.350;2022-10-29T04:49:01;21.00;19.50;7.25
72509;PMS5003;60532;56.114;40.350;2022-10-29T04:51:02;15.00;13.00;7.00
72509;PMS5003;60532;56.114;40.350;2022-10-29T04:53:03;16.25;16.00;5.50
72509;PMS5003;60532;56.114;40.350;2022-10-29T04:55:04;20.00;16.00;7.00
72509;PMS5003;60532;56.114;40.350;2022-10-29T04:57:05;21.25;17.75;8.25
72509;PMS5003;60532;56.114;40.350;2022-10-29T04:59:05;16.25;16.25;7.00
72509;PMS5003;60532;56.114;40.350;2022-10-29T05:01:06;16.75;15.00;6.75
72509;PMS5003;60532;56.114;40.350;2022-10-29T05:03:06;12.25;11.50;5.25
72509;PMS5003;60532;56.114;40.350;2022-10-29T05:05:07;16.75;14.00;6.75
72509;PMS5003;60532;56.114;40.350;2022-10-29T05:07:08;24.25;19.50;7.00
72509;PMS5003;60532;56.114;40.350;2022-10-29T05:09:08;16.00;14.50;5.00
72509;PMS5003;60532;56.114;40.350;2022-10-29T05:11:09;16.00;15.00;7.00
72509;PMS5003;60532;56.114;40.350;2022-10-29T05:13:10;15.75;12.50;7.50
72509;PMS5003;60532;56.114;40.350;2022-10-29T05:15:11;16.40;16.40;6.80
72509;PMS5003;60532;56.114;40.350;2022-10-29T05:17:11;13.50;11.75;6.75
72509;PMS5003;60532;56.114;40.350;2022-10-29T05:19:12;19.00;14.25;6.00
72509;PMS5003;60532;56.114;40.350;2022-10-29T05:21:12;14.75;14.00;6.75
72509;PMS5003;60532;56.114;40.350;2022-10-29T05:23:13;13.00;11.50;6.00
72509;PMS5003;60532;56.114;40.350;2022-10-29T05:25:13;18.50;15.75;6.75
72509;PMS5003;60532;56.114;40.350;2022-10-29T05:27:14;13.80;12.00;5.20
72509;PMS5003;60532;56.114;40.350;2022-10-29T05:29:15;17.00;15.00;6.00
72509;PMS5003;60532;56.114;40.350;2022-10-29T05:31:15;11.75;11.50;5.00
72509;PMS5003;60532;56.114;40.350;2022-10-29T05:33:17;15.75;14.25;7.00
72509;PMS5003;60532;56.114;40.350;2022-10-29T05:35:18;20.60;16.20;6.20
72509;PMS5003;60532;56.114;40.350;2022-10-29T05:37:18;21.25;19.00;8.00
72509;PMS5003;60532;56.114;40.350;2022-10-29T05:39:19;16.50;15.00;6.00
72509;PMS5003;60532;56.114;40.350;2022-10-29T05:41:19;15.25;15.00;7.00
72509;PMS5003;60532;56.114;40.350;2022-10-29T05:43:20;19.50;16.00;6.50
72509;PMS5003;60532;56.114;40.350;2022-10-29T05:45:20;11.50;9.25;5.50
72509;PMS5003;60532;56.114;40.350;2022-10-29T05:47:21;21.50;18.25;7.00
72509;PMS5003;60532;56.114;40.350;2022-10-29T05:49:21;19.50;13.75;6.00
72509;PMS5003;60532;56.114;40.350;2022-10-29T05:51:22;19.50;18.00;7.25
72509;PMS5003;60532;56.114;40.350;2022-10-29T05:53:22;15.75;15.75;7.50
72509;PMS5003;60532;56.114;40.350;2022-10-29T05:55:23;17.80;17.00;7.20
72509;PMS5003;60532;56.114;40.350;2022-10-29T05:57:24;21.25;17.50;10.00
72509;PMS5003;60532;56.114;40.350;2022-10-29T05:59:24;16.00;16.00;7.00
72509;PMS5003;60532;56.114;40.350;2022-10-29T06:01:25;24.00;19.25;7.50
72509;PMS5003;60532;56.114;40.350;2022-10-29T06:03:25;24.00;19.75;7.00
72509;PMS5003;60532;56.114;40.350;2022-10-29T06:05:26;23.50;19.25;8.00
72509;PMS5003;60532;56.114;40.350;2022-10-29T06:07:26;22.50;17.50;8.00
72509;PMS5003;60532;56.114;40.350;2022-10-29T06:09:27;19.25;17.50;8.50
72509;PMS5003;60532;56.114;40.350;2022-10-29T06:11:27;12.75;11.25;6.75
72509;PMS5003;60532;56.114;40.350;2022-10-29T06:13:28;12.50;12.00;5.00
72509;PMS5003;60532;56.114;40.350;2022-10-29T06:15:28;18.50;15.50;7.00
72509;PMS5003;60532;56.114;40.350;2022-10-29T06:17:29;18.00;18.00;6.75
72509;PMS5003;60532;56.114;40.350;2022-10-29T06:19:29;21.25;19.00;7.25
72509;PMS5003;60532;56.114;40.350;2022-10-29T06:21:30;20.00;16.75;7.75
72509;PMS5003;60532;56.114;40.350;2022-10-29T06:23:30;22.25;20.00;8.00
72509;PMS5003;60532;56.114;40.350;2022-10-29T06:25:31;25.75;20.75;10.25
72509;PMS5003;60532;56.114;40.350;2022-10-29T06:27:31;23.00;18.75;7.75
72509;PMS5003;60532;56.114;40.350;2022-10-29T06:29:32;19.25;19.00;7.00
72509;PMS5003;60532;56.114;40.350;2022-10-29T06:31:32;21.75;20.00;9.00
72509;PMS5003;60532;56.114;40.350;2022-10-29T06:33:33;20.50;16.00;8.00
72509;PMS5003;60532;56.114;40.350;2022-10-29T06:35:34;21.25;15.00;6.75
72509;PMS5003;60532;56.114;40.350;2022-10-29T06:37:36;18.75;14.50;5.50
72509;PMS5003;60532;56.114;40.350;2022-10-29T06:39:36;19.80;17.20;6.00
72509;PMS5003;60532;56.114;40.350;2022-10-29T06:41:37;16.25;12.00;6.75
72509;PMS5003;60532;56.114;40.350;2022-10-29T06:43:37;17.25;16.75;7.00
72509;PMS5003;60532;56.114;40.350;2022-10-29T06:45:38;19.00;16.00;6.50
72509;PMS5003;60532;56.114;40.350;2022-10-29T06:47:39;20.00;19.00;6.25
72509;PMS5003;60532;56.114;40.350;2022-10-29T06:49:40;22.60;18.00;7.00
72509;PMS5003;60532;56.114;40.350;2022-10-29T06:51:40;22.00;18.25;10.25
72509;PMS5003;60532;56.114;40.350;2022-10-29T06:53:41;23.00;18.50;9.50
72509;PMS5003;60532;56.114;40.350;2022-10-29T06:55:41;12.00;12.00;7.00
72509;PMS5003;60532;56.114;40.350;2022-10-29T06:57:42;19.50;16.25;7.00
72509;PMS5003;60532;56.114;40.350;2022-10-29T06:59:42;18.75;17.25;8.25
72509;PMS5003;60532;56.114;40.350;2022-10-29T07:01:43;18.50;17.75;9.75
72509;PMS5003;60532;56.114;40.350;2022-10-29T07:03:45;5.80;5.80;5.60
72509;PMS5003;60532;56.114;40.350;2022-10-29T07:05:53;17.00;15.50;6.50
72509;PMS5003;60532;56.114;40.350;2022-10-29T07:07:54;15.20;14.80;6.60
72509;PMS5003;60532;56.114;40.350;2022-10-29T07:09:55;22.00;16.60;7.00
72509;PMS5003;60532;56.114;40.350;2022-10-29T07:11:57;14.60;12.60;7.00
72509;PMS5003;60532;56.114;40.350;2022-10-29T07:13:58;15.75;14.50;6.25
72509;PMS5003;60532;56.114;40.350;2022-10-29T07:15:59;15.40;12.00;5.80
72509;PMS5003;60532;56.114;40.350;2022-10-29T07:18:03;12.00;7.75;4.50
72509;PMS5003;60532;56.114;40.350;2022-10-29T07:20:07;18.00;13.20;6.40
72509;PMS5003;60532;56.114;40.350;2022-10-29T07:22:08;20.00;17.60;7.00
72509;PMS5003;60532;56.114;40.350;2022-10-29T07:24:09;18.25;15.50;7.00
72509;PMS5003;60532;56.114;40.350;2022-10-29T07:26:10;22.40;19.60;9.20
72509;PMS5003;60532;56.114;40.350;2022-10-29T07:28:12;16.75;13.00;7.00
72509;PMS5003;60532;56.114;40.350;2022-10-29T07:30:12;18.80;15.60;7.40
72509;PMS5003;60532;56.114;40.350;2022-10-29T07:32:13;22.50;18.50;8.00
72509;PMS5003;60532;56.114;40.350;2022-10-29T07:34:13;20.75;16.75;7.00
72509;PMS5003;60532;56.114;40.350;2022-10-29T07:36:14;24.50;16.75;6.50
72509;PMS5003;60532;56.114;40.350;2022-10-29T07:38:15;20.25;15.75;8.00
72509;PMS5003;60532;56.114;40.350;2022-10-29T07:40:15;17.00;14.75;7.00
72509;PMS5003;60532;56.114;40.350;2022-10-29T07:42:16;16.25;15.25;7.00
72509;PMS5003;60532;56.114;40.350;2022-10-29T07:44:19;16.00;14.00;7.00
72509;PMS5003;60532;56.114;40.350;2022-10-29T07:46:20;20.00;14.00;7.00
72509;PMS5003;60532;56.114;40.350;2022-10-29T07:48:20;17.75;14.00;8.00
72509;PMS5003;60532;56.114;40.350;2022-10-29T07:50:21;17.00;16.00;7.00
72509;PMS5003;60532;56.114;40.350;2022-10-29T07:52:21;14.50;12.00;6.00
72509;PMS5003;60532;56.114;40.350;2022-10-29T07:54:22;12.00;11.00;3.00
72509;PMS5003;60532;56.114;40.350;2022-10-29T07:56:25;12.80;10.80;5.00
72509;PMS5003;60532;56.114;40.350;2022-10-29T07:58:26;17.50;15.75;7.00
72509;PMS5003;60532;56.114;40.350;2022-10-29T08:00:29;14.20;13.80;6.00
72509;PMS5003;60532;56.114;40.350;2022-10-29T08:02:33;15.60;15.60;7.00
72509;PMS5003;60532;56.114;40.350;2022-10-29T08:04:33;13.00;12.00;7.00
72509;PMS5003;60532;56.114;40.350;2022-10-29T08:06:34;10.25;8.50;7.00
72509;PMS5003;60532;56.114;40.350;2022-10-29T08:08:35;13.25;12.50;7.00
72509;PMS5003;60532;56.114;40.350;2022-10-29T08:10:35;17.50;14.50;6.00
72509;PMS5003;60532;56.114;40.350;2022-10-29T08:12:36;14.20;13.40;6.00
72509;PMS5003;60532;56.114;40.350;2022-10-29T08:14:37;10.60;9.60;5.00
72509;PMS5003;60532;56.114;40.350;2022-10-29T08:16:38;11.25;11.25;5.00
72509;PMS5003;60532;56.114;40.350;2022-10-29T08:18:38;12.25;10.75;6.00
72509;PMS5003;60532;56.114;40.350;2022-10-29T08:20:40;11.80;11.80;4.20
72509;PMS5003;60532;56.114;40.350;2022-10-29T08:22:41;9.75;8.50;6.00
72509;PMS5003;60532;56.114;40.350;2022-10-29T08:24:41;12.00;11.75;6.00
72509;PMS5003;60532;56.114;40.350;2022-10-29T08:26:42;7.25;7.25;5.00
72509;PMS5003;60532;56.114;40.350;2022-10-29T08:28:42;8.00;7.50;2.50
72509;PMS5003;60532;56.114;40.350;2022-10-29T08:30:46;14.50;12.50;5.75
72509;PMS5003;60532;56.114;40.350;2022-10-29T08:32:47;12.20;8.20;3.20
72509;PMS5003;60532;56.114;40.350;2022-10-29T08:34:48;13.50;11.25;6.00
72509;PMS5003;60532;56.114;40.350;2022-10-29T08:36:49;14.00;12.50;6.00
72509;PMS5003;60532;56.114;40.350;2022-10-29T08:38:50;13.00;11.20;5.20
72509;PMS5003;60532;56.114;40.350;2022-10-29T08:43:01;8.40;8.40;3.00
72509;PMS5003;60532;56.114;40.350;2022-10-29T08:47:32;10.20;10.00;2.00
72509;PMS5003;60532;56.114;40.350;2022-10-29T08:49:38;15.20;11.80;5.00
72509;PMS5003;60532;56.114;40.350;2022-10-29T08:51:41;11.80;11.00;5.00
72509;PMS5003;60532;56.114;40.350;2022-10-29T08:53:46;10.80;9.80;5.00
72509;PMS5003;60532;56.114;40.350;2022-10-29T08:55:48;5.00;5.00;1.80
72509;PMS5003;60532;56.114;40.350;2022-10-29T08:57:56;13.00;10.25;6.00
72509;PMS5003;60532;56.114;40.350;2022-10-29T09:00:05;11.00;6.60;3.00
72509;PMS5003;60532;56.114;40.350;2022-10-29T09:02:13;10.20;9.20;4.00
72509;PMS5003;60532;56.114;40.350;2022-10-29T09:04:19;12.40;11.40;6.20
72509;PMS5003;60532;56.114;40.350;2022-10-29T09:10:50;9.40;8.40;4.00
72509;PMS5003;60532;56.114;40.350;2022-10-29T09:20:07;10.00;8.00;3.75
72509;PMS5003;60532;56.114;40.350;2022-10-29T09:22:23;6.60;6.60;2.20
72509;PMS5003;60532;56.114;40.350;2022-10-29T09:24:49;11.00;7.80;3.00
72509;PMS5003;60532;56.114;40.350;2022-10-29T09:26:55;7.60;7.00;2.80
72509;PMS5003;60532;56.114;40.350;2022-10-29T09:33:02;7.00;5.50;2.00
72509;PMS5003;60532;56.114;40.350;2022-10-29T09:35:13;7.40;7.40;3.00
72509;PMS5003;60532;56.114;40.350;2022-10-29T09:37:17;11.00;9.20;4.20
72509;PMS5003;60532;56.114;40.350;2022-10-29T09:39:32;9.20;7.40;5.00
72509;PMS5003;60532;56.114;40.350;2022-10-29T09:41:34;12.00;11.00;3.80
72509;PMS5003;60532;56.114;40.350;2022-10-29T09:43:38;5.80;5.80;1.00
72509;PMS5003;60532;56.114;40.350;2022-10-29T09:48:06;11.25;8.00;4.25
72509;PMS5003;60532;56.114;40.350;2022-10-29T09:54:10;10.20;10.20;3.00
72509;PMS5003;60532;56.114;40.350;2022-10-29T09:56:11;13.50;10.00;4.50
72509;PMS5003;60532;56.114;40.350;2022-10-29T09:58:19;10.25;10.25;5.75
72509;PMS5003;60532;56.114;40.350;2022-10-29T10:00:29;11.20;10.00;5.60
72509;PMS5003;60532;56.114;40.350;2022-10-29T10:02:37;11.60;10.80;3.80
72509;PMS5003;60532;56.114;40.350;2022-10-29T10:04:40;10.60;7.80;4.40
72509;PMS5003;60532;56.114;40.350;2022-10-29T10:07:01;14.40;14.40;5.60
72509;PMS5003;60532;56.114;40.350;2022-10-29T10:09:03;11.40;11.00;3.80
72509;PMS5003;60532;56.114;40.350;2022-10-29T10:11:07;9.40;8.40;5.00
72509;PMS5003;60532;56.114;40.350;2022-10-29T10:13:18;8.20;7.60;3.00
72509;PMS5003;60532;56.114;40.350;2022-10-29T10:15:24;18.20;12.60;5.40
72509;PMS5003;60532;56.114;40.350;2022-10-29T10:17:27;13.40;12.20;5.00
72509;PMS5003;60532;56.114;40.350;2022-10-29T10:19:29;11.75;11.75;4.25
72509;PMS5003;60532;56.114;40.350;2022-10-29T10:21:31;13.40;9.80;3.00
72509;PMS5003;60532;56.114;40.350;2022-10-29T10:25:41;10.40;10.40;6.40
72509;PMS5003;60532;56.114;40.350;2022-10-29T10:27:42;14.00;10.50;4.50
72509;PMS5003;60532;56.114;40.350;2022-10-29T10:29:43;12.25;11.00;5.00
72509;PMS5003;60532;56.114;40.350;2022-10-29T10:31:47;17.20;13.40;6.00
72509;PMS5003;60532;56.114;40.350;2022-10-29T10:33:49;13.40;10.60;5.40
72509;PMS5003;60532;56.114;40.350;2022-10-29T10:35:51;12.80;12.20;6.00
72509;PMS5003;60532;56.114;40.350;2022-10-29T10:37:52;16.00;12.40;6.00
72509;PMS5003;60532;56.114;40.350;2022-10-29T10:39:56;12.80;11.80;6.00
72509;PMS5003;60532;56.114;40.350;2022-10-29T10:42:01;14.40;12.60;5.20
72509;PMS5003;60532;56.114;40.350;2022-10-29T10:44:02;13.40;12.60;6.00
72509;PMS5003;60532;56.114;40.350;2022-10-29T10:46:04;17.80;13.20;5.60
72509;PMS5003;60532;56.114;40.350;2022-10-29T10:48:09;13.80;11.40;6.80
72509;PMS5003;60532;56.114;40.350;2022-10-29T10:50:31;14.80;12.60;7.00
72509;PMS5003;60532;56.114;40.350;2022-10-29T10:52:32;13.60;11.60;6.00
72509;PMS5003;60532;56.114;40.350;2022-10-29T10:54:36;11.40;11.00;3.80
72509;PMS5003;60532;56.114;40.350;2022-10-29T10:56:50;11.00;11.00;6.20
72509;PMS5003;60532;56.114;40.350;2022-10-29T10:59:03;10.20;10.20;4.20
72509;PMS5003;60532;56.114;40.350;2022-10-29T11:01:08;12.20;7.00;3.40
72509;PMS5003;60532;56.114;40.350;2022-10-29T11:03:20;12.80;12.80;6.00
72509;PMS5003;60532;56.114;40.350;2022-10-29T11:05:33;11.60;11.60;5.80
72509;PMS5003;60532;56.114;40.350;2022-10-29T11:07:35;13.20;11.00;5.60
72509;PMS5003;60532;56.114;40.350;2022-10-29T11:09:39;16.80;13.80;5.80
72509;PMS5003;60532;56.114;40.350;2022-10-29T11:11:49;13.40;11.60;6.00
72509;PMS5003;60532;56.114;40.350;2022-10-29T11:13:57;19.00;12.00;3.40
72509;PMS5003;60532;56.114;40.350;2022-10-29T11:18:40;15.20;12.60;6.40
72509;PMS5003;60532;56.114;40.350;2022-10-29T11:20:39;15.80;14.40;6.00
72509;PMS5003;60532;56.114;40.350;2022-10-29T11:25:41;16.20;10.60;3.60
72509;PMS5003;60532;56.114;40.350;2022-10-29T11:27:39;7.20;7.20;2.00
72509;PMS5003;60532;56.114;40.350;2022-10-29T11:35:59;8.80;8.40;4.00
72509;PMS5003;60532;56.114;40.350;2022-10-29T11:38:14;8.80;8.80;6.00
72509;PMS5003;60532;56.114;40.350;2022-10-29T11:40:23;7.20;7.20;3.80
72509;PMS5003;60532;56.114;40.350;2022-10-29T11:42:26;11.40;6.00;1.00
72509;PMS5003;60532;56.114;40.350;2022-10-29T11:44:27;8.50;7.00;4.00
72509;PMS5003;60532;56.114;40.350;2022-10-29T11:59:43;11.00;7.00;3.00
72509;PMS5003;60532;56.114;40.350;2022-10-29T12:01:56;15.80;8.00;4.00
72509;PMS5003;60532;56.114;40.350;2022-10-29T12:06:21;6.00;6.00;3.00
72509;PMS5003;60532;56.114;40.350;2022-10-29T12:08:30;8.40;8.40;4.00
72509;PMS5003;60532;56.114;40.350;2022-10-29T12:14:55;9.20;9.20;3.00
72509;PMS5003;60532;56.114;40.350;2022-10-29T12:30:06;8.50;8.50;6.00
72509;PMS5003;60532;56.114;40.350;2022-10-29T12:36:53;9.25;9.00;5.25
72509;PMS5003;60532;56.114;40.350;2022-10-29T12:39:00;8.20;7.40;4.80
72509;PMS5003;60532;56.114;40.350;2022-10-29T12:41:03;12.20;11.00;5.60
72509;PMS5003;60532;56.114;40.350;2022-10-29T12:43:05;8.80;8.40;4.00
72509;PMS5003;60532;56.114;40.350;2022-10-29T12:45:21;9.00;6.60;3.00
72509;PMS5003;60532;56.114;40.350;2022-10-29T12:47:25;9.80;8.60;5.60
72509;PMS5003;60532;56.114;40.350;2022-10-29T12:51:53;13.20;12.20;4.20
72509;PMS5003;60532;56.114;40.350;2022-10-29T12:56:10;13.20;11.40;6.00
72509;PMS5003;60532;56.114;40.350;2022-10-29T13:00:44;7.80;7.80;5.80
72509;PMS5003;60532;56.114;40.350;2022-10-29T13:02:46;6.00;6.00;2.00
72509;PMS5003;60532;56.114;40.350;2022-10-29T13:09:23;8.80;8.80;4.20
72509;PMS5003;60532;56.114;40.350;2022-10-29T13:11:23;8.40;8.40;6.00
72509;PMS5003;60532;56.114;40.350;2022-10-29T13:13:47;8.60;8.60;4.40
72509;PMS5003;60532;56.114;40.350;2022-10-29T13:16:00;10.80;7.60;2.20
72509;PMS5003;60532;56.114;40.350;2022-10-29T13:18:05;11.00;8.40;6.00
72509;PMS5003;60532;56.114;40.350;2022-10-29T13:20:26;11.00;10.20;6.00